sensor_id;sensor_type;location;lat;lon;timestamp;temperature;humidity
35692;DHT22;26978;44.830;-0.674;2023-03-01T00:00:15;2.50;99.80
35692;DHT22;26978;44.830;-0.674;2023-03-01T00:02:41;2.50;99.90
35692;DHT22;26978;44.830;-0.674;2023-03-01T00:05:06;2.50;99.90
35692;DHT22;26978;44.830;-0.674;2023-03-01T00:07:32;2.50;99.90
35692;DHT22;26978;44.830;-0.674;2023-03-01T00:09:58;2.50;99.90
35692;DHT22;26978;44.830;-0.674;2023-03-01T00:12:23;2.40;99.90
35692;DHT22;26978;44.830;-0.674;2023-03-01T00:14:49;2.50;99.90
35692;DHT22;26978;44.830;-0.674;2023-03-01T00:17:14;2.50;99.90
35692;DHT22;26978;44.830;-0.674;2023-03-01T00:19:40;2.50;99.90
35692;DHT22;26978;44.830;-0.674;2023-03-01T00:22:05;2.50;99.90
35692;DHT22;26978;44.830;-0.674;2023-03-01T00:24:31;2.50;99.90
35692;DHT22;26978;44.830;-0.674;2023-03-01T00:26:57;2.50;99.00
35692;DHT22;26978;44.830;-0.674;2023-03-01T00:29:23;2.50;99.00
35692;DHT22;26978;44.830;-0.674;2023-03-01T00:31:49;2.40;99.00
35692;DHT22;26978;44.830;-0.674;2023-03-01T00:34:14;2.40;99.40
35692;DHT22;26978;44.830;-0.674;2023-03-01T00:36:40;2.40;99.60
35692;DHT22;26978;44.830;-0.674;2023-03-01T00:39:07;2.30;99.90
35692;DHT22;26978;44.830;-0.674;2023-03-01T00:41:35;2.30;99.90
35692;DHT22;26978;44.830;-0.674;2023-03-01T00:44:00;2.30;99.90
35692;DHT22;26978;44.830;-0.674;2023-03-01T00:46:26;2.30;99.90
35692;DHT22;26978;44.830;-0.674;2023-03-01T00:48:52;2.40;99.90
35692;DHT22;26978;44.830;-0.674;2023-03-01T00:51:22;2.40;99.90
35692;DHT22;26978;44.830;-0.674;2023-03-01T00:53:50;2.50;99.90
35692;DHT22;26978;44.830;-0.674;2023-03-01T00:56:16;2.50;99.90
35692;DHT22;26978;44.830;-0.674;2023-03-01T00:58:41;2.40;99.90
35692;DHT22;26978;44.830;-0.674;2023-03-01T01:01:15;2.40;99.90
35692;DHT22;26978;44.830;-0.674;2023-03-01T01:03:45;2.40;99.90
35692;DHT22;26978;44.830;-0.674;2023-03-01T01:06:15;2.30;99.90
35692;DHT22;26978;44.830;-0.674;2023-03-01T01:08:40;2.30;99.90
35692;DHT22;26978;44.830;-0.674;2023-03-01T01:11:08;2.30;99.90
35692;DHT22;26978;44.830;-0.674;2023-03-01T01:13:33;2.30;99.90
35692;DHT22;26978;44.830;-0.674;2023-03-01T01:16:02;2.30;99.90
35692;DHT22;26978;44.830;-0.674;2023-03-01T01:18:28;2.30;99.90
35692;DHT22;26978;44.830;-0.674;2023-03-01T01:20:53;2.20;99.90
35692;DHT22;26978;44.830;-0.674;2023-03-01T01:23:19;2.30;99.90
35692;DHT22;26978;44.830;-0.674;2023-03-01T01:25:44;2.30;99.90
35692;DHT22;26978;44.830;-0.674;2023-03-01T01:28:10;2.30;99.90
35692;DHT22;26978;44.830;-0.674;2023-03-01T01:30:35;2.20;99.90
35692;DHT22;26978;44.830;-0.674;2023-03-01T01:33:01;2.20;99.90
35692;DHT22;26978;44.830;-0.674;2023-03-01T01:35:27;2.20;99.90
35692;DHT22;26978;44.830;-0.674;2023-03-01T01:37:52;2.20;99.90
35692;DHT22;26978;44.830;-0.674;2023-03-01T01:40:18;2.10;99.90
35692;DHT22;26978;44.830;-0.674;2023-03-01T01:42:43;2.10;99.90
35692;DHT22;26978;44.830;-0.674;2023-03-01T01:45:28;2.10;99.90
35692;DHT22;26978;44.830;-0.674;2023-03-01T01:47:54;2.00;99.90
35692;DHT22;26978;44.830;-0.674;2023-03-01T01:50:20;2.00;99.90
35692;DHT22;26978;44.830;-0.674;2023-03-01T01:52:46;2.00;99.90
35692;DHT22;26978;44.830;-0.674;2023-03-01T01:55:21;2.10;99.90
35692;DHT22;26978;44.830;-0.674;2023-03-01T01:57:49;2.10;99.90
35692;DHT22;26978;44.830;-0.674;2023-03-01T02:00:20;2.20;99.90
35692;DHT22;26978;44.830;-0.674;2023-03-01T02:02:46;2.20;99.90
35692;DHT22;26978;44.830;-0.674;2023-03-01T02:05:18;2.10;99.90
35692;DHT22;26978;44.830;-0.674;2023-03-01T02:07:45;2.20;99.90
35692;DHT22;26978;44.830;-0.674;2023-03-01T02:10:11;2.20;99.90
35692;DHT22;26978;44.830;-0.674;2023-03-01T02:12:37;2.20;99.90
35692;DHT22;26978;44.830;-0.674;2023-03-01T02:15:03;2.10;99.90
35692;DHT22;26978;44.830;-0.674;2023-03-01T02:17:29;2.10;99.90
35692;DHT22;26978;44.830;-0.674;2023-03-01T02:22:22;2.10;99.90
35692;DHT22;26978;44.830;-0.674;2023-03-01T02:27:29;2.00;99.90
35692;DHT22;26978;44.830;-0.674;2023-03-01T02:29:56;1.90;99.90
35692;DHT22;26978;44.830;-0.674;2023-03-01T02:32:22;1.90;99.90
35692;DHT22;26978;44.830;-0.674;2023-03-01T02:34:53;1.80;99.90
35692;DHT22;26978;44.830;-0.674;2023-03-01T02:37:20;1.80;99.90
35692;DHT22;26978;44.830;-0.674;2023-03-01T02:39:59;1.70;99.90
35692;DHT22;26978;44.830;-0.674;2023-03-01T02:42:31;1.70;99.90
35692;DHT22;26978;44.830;-0.674;2023-03-01T02:44:59;1.60;99.90
35692;DHT22;26978;44.830;-0.674;2023-03-01T02:47:24;1.50;99.90
35692;DHT22;26978;44.830;-0.674;2023-03-01T02:49:50;1.40;99.90
35692;DHT22;26978;44.830;-0.674;2023-03-01T02:52:37;1.40;99.90
35692;DHT22;26978;44.830;-0.674;2023-03-01T02:55:08;1.20;99.90
35692;DHT22;26978;44.830;-0.674;2023-03-01T02:57:35;1.00;99.90
35692;DHT22;26978;44.830;-0.674;2023-03-01T03:00:03;0.90;99.90
35692;DHT22;26978;44.830;-0.674;2023-03-01T03:02:32;0.90;99.90
35692;DHT22;26978;44.830;-0.674;2023-03-01T03:05:07;0.90;99.90
35692;DHT22;26978;44.830;-0.674;2023-03-01T03:07:34;0.80;99.90
35692;DHT22;26978;44.830;-0.674;2023-03-01T03:10:00;1.00;99.90
35692;DHT22;26978;44.830;-0.674;2023-03-01T03:12:25;1.00;99.90
35692;DHT22;26978;44.830;-0.674;2023-03-01T03:14:51;1.00;99.90
35692;DHT22;26978;44.830;-0.674;2023-03-01T03:17:16;0.90;99.90
35692;DHT22;26978;44.830;-0.674;2023-03-01T03:19:42;0.80;99.90
35692;DHT22;26978;44.830;-0.674;2023-03-01T03:22:13;0.80;99.90
35692;DHT22;26978;44.830;-0.674;2023-03-01T03:24:39;0.90;99.90
35692;DHT22;26978;44.830;-0.674;2023-03-01T03:27:04;1.00;99.90
35692;DHT22;26978;44.830;-0.674;2023-03-01T03:29:30;0.90;99.90
35692;DHT22;26978;44.830;-0.674;2023-03-01T03:31:56;0.90;99.90
35692;DHT22;26978;44.830;-0.674;2023-03-01T03:34:21;1.00;99.90
35692;DHT22;26978;44.830;-0.674;2023-03-01T03:36:47;1.10;99.90
35692;DHT22;26978;44.830;-0.674;2023-03-01T03:39:12;1.20;99.90
35692;DHT22;26978;44.830;-0.674;2023-03-01T03:41:38;1.10;99.90
35692;DHT22;26978;44.830;-0.674;2023-03-01T03:44:03;1.10;99.90
35692;DHT22;26978;44.830;-0.674;2023-03-01T03:46:29;1.20;99.90
35692;DHT22;26978;44.830;-0.674;2023-03-01T03:48:55;1.40;99.90
35692;DHT22;26978;44.830;-0.674;2023-03-01T03:51:20;1.50;99.90
35692;DHT22;26978;44.830;-0.674;2023-03-01T03:53:47;1.50;99.90
35692;DHT22;26978;44.830;-0.674;2023-03-01T03:56:13;1.60;99.90
35692;DHT22;26978;44.830;-0.674;2023-03-01T03:58:39;1.60;99.90
35692;DHT22;26978;44.830;-0.674;2023-03-01T04:01:05;1.60;99.90
35692;DHT22;26978;44.830;-0.674;2023-03-01T04:03:31;1.70;99.90
35692;DHT22;26978;44.830;-0.674;2023-03-01T04:05:57;1.70;99.90
35692;DHT22;26978;44.830;-0.674;2023-03-01T04:08:23;1.70;99.90
35692;DHT22;26978;44.830;-0.674;2023-03-01T04:10:50;1.70;99.90
35692;DHT22;26978;44.830;-0.674;2023-03-01T04:13:16;1.70;99.90
35692;DHT22;26978;44.830;-0.674;2023-03-01T04:15:45;1.70;99.90
35692;DHT22;26978;44.830;-0.674;2023-03-01T04:18:14;1.60;99.90
35692;DHT22;26978;44.830;-0.674;2023-03-01T04:20:40;1.60;99.90
35692;DHT22;26978;44.830;-0.674;2023-03-01T04:28:24;1.60;99.90
35692;DHT22;26978;44.830;-0.674;2023-03-01T04:30:50;1.60;99.90
35692;DHT22;26978;44.830;-0.674;2023-03-01T04:33:16;1.50;99.90
35692;DHT22;26978;44.830;-0.674;2023-03-01T04:35:41;1.50;99.90
35692;DHT22;26978;44.830;-0.674;2023-03-01T04:38:07;1.40;99.90
35692;DHT22;26978;44.830;-0.674;2023-03-01T04:40:33;1.40;99.90
35692;DHT22;26978;44.830;-0.674;2023-03-01T04:42:59;1.30;99.90
35692;DHT22;26978;44.830;-0.674;2023-03-01T04:45:24;1.30;99.90
35692;DHT22;26978;44.830;-0.674;2023-03-01T04:47:50;1.30;99.90
35692;DHT22;26978;44.830;-0.674;2023-03-01T04:50:17;1.30;99.90
35692;DHT22;26978;44.830;-0.674;2023-03-01T04:52:45;1.20;99.90
35692;DHT22;26978;44.830;-0.674;2023-03-01T04:55:11;1.30;99.90
35692;DHT22;26978;44.830;-0.674;2023-03-01T04:57:37;1.30;99.90
35692;DHT22;26978;44.830;-0.674;2023-03-01T05:00:04;1.30;99.90
35692;DHT22;26978;44.830;-0.674;2023-03-01T05:02:49;1.30;99.90
35692;DHT22;26978;44.830;-0.674;2023-03-01T05:05:39;1.30;99.90
35692;DHT22;26978;44.830;-0.674;2023-03-01T05:08:07;1.30;99.90
35692;DHT22;26978;44.830;-0.674;2023-03-01T05:10:33;1.30;99.90
35692;DHT22;26978;44.830;-0.674;2023-03-01T05:13:00;1.20;99.90
35692;DHT22;26978;44.830;-0.674;2023-03-01T05:15:26;1.20;99.90
35692;DHT22;26978;44.830;-0.674;2023-03-01T05:17:53;1.10;99.90
35692;DHT22;26978;44.830;-0.674;2023-03-01T05:20:19;1.10;99.90
35692;DHT22;26978;44.830;-0.674;2023-03-01T05:22:48;1.00;99.90
35692;DHT22;26978;44.830;-0.674;2023-03-01T05:25:14;1.00;99.90
35692;DHT22;26978;44.830;-0.674;2023-03-01T05:27:39;1.00;99.90
35692;DHT22;26978;44.830;-0.674;2023-03-01T05:30:05;1.10;99.90
35692;DHT22;26978;44.830;-0.674;2023-03-01T05:32:42;1.00;99.90
35692;DHT22;26978;44.830;-0.674;2023-03-01T05:35:09;1.00;99.90
35692;DHT22;26978;44.830;-0.674;2023-03-01T05:37:34;0.90;99.90
35692;DHT22;26978;44.830;-0.674;2023-03-01T05:40:01;0.90;99.90
35692;DHT22;26978;44.830;-0.674;2023-03-01T05:42:26;0.90;99.90
35692;DHT22;26978;44.830;-0.674;2023-03-01T05:44:52;0.70;99.90
35692;DHT22;26978;44.830;-0.674;2023-03-01T05:47:18;0.60;99.90
35692;DHT22;26978;44.830;-0.674;2023-03-01T05:49:43;0.50;99.90
35692;DHT22;26978;44.830;-0.674;2023-03-01T05:52:09;0.30;99.90
35692;DHT22;26978;44.830;-0.674;2023-03-01T05:54:34;0.30;99.90
35692;DHT22;26978;44.830;-0.674;2023-03-01T05:57:00;0.20;99.90
35692;DHT22;26978;44.830;-0.674;2023-03-01T05:59:25;0.30;99.90
35692;DHT22;26978;44.830;-0.674;2023-03-01T06:01:51;0.40;99.90
35692;DHT22;26978;44.830;-0.674;2023-03-01T06:04:16;0.50;99.90
35692;DHT22;26978;44.830;-0.674;2023-03-01T06:06:42;0.40;99.90
35692;DHT22;26978;44.830;-0.674;2023-03-01T06:09:07;0.40;99.90
35692;DHT22;26978;44.830;-0.674;2023-03-01T06:11:35;0.30;99.90
35692;DHT22;26978;44.830;-0.674;2023-03-01T06:14:01;0.50;99.90
35692;DHT22;26978;44.830;-0.674;2023-03-01T06:16:26;0.40;99.90
35692;DHT22;26978;44.830;-0.674;2023-03-01T06:18:52;0.50;99.90
35692;DHT22;26978;44.830;-0.674;2023-03-01T06:21:17;0.40;99.90
35692;DHT22;26978;44.830;-0.674;2023-03-01T06:23:43;0.40;99.90
35692;DHT22;26978;44.830;-0.674;2023-03-01T06:26:08;0.50;99.90
35692;DHT22;26978;44.830;-0.674;2023-03-01T06:28:34;0.60;99.90
35692;DHT22;26978;44.830;-0.674;2023-03-01T06:31:00;0.60;99.90
35692;DHT22;26978;44.830;-0.674;2023-03-01T06:33:25;0.70;99.90
35692;DHT22;26978;44.830;-0.674;2023-03-01T06:35:53;0.70;99.90
35692;DHT22;26978;44.830;-0.674;2023-03-01T06:38:19;0.60;99.90
35692;DHT22;26978;44.830;-0.674;2023-03-01T06:40:51;0.60;99.90
35692;DHT22;26978;44.830;-0.674;2023-03-01T06:43:19;0.40;99.90
35692;DHT22;26978;44.830;-0.674;2023-03-01T06:45:45;0.50;99.90
35692;DHT22;26978;44.830;-0.674;2023-03-01T06:48:10;0.40;99.90
35692;DHT22;26978;44.830;-0.674;2023-03-01T06:50:36;0.30;99.90
35692;DHT22;26978;44.830;-0.674;2023-03-01T06:53:03;0.20;99.90
35692;DHT22;26978;44.830;-0.674;2023-03-01T06:55:29;0.20;99.90
35692;DHT22;26978;44.830;-0.674;2023-03-01T06:57:55;0.20;99.90
35692;DHT22;26978;44.830;-0.674;2023-03-01T07:00:21;0.20;99.90
35692;DHT22;26978;44.830;-0.674;2023-03-01T07:02:47;0.20;99.90
35692;DHT22;26978;44.830;-0.674;2023-03-01T07:05:12;0.20;99.90
35692;DHT22;26978;44.830;-0.674;2023-03-01T07:07:38;0.30;99.90
35692;DHT22;26978;44.830;-0.674;2023-03-01T07:10:04;0.30;99.90
35692;DHT22;26978;44.830;-0.674;2023-03-01T07:12:29;0.30;99.90
35692;DHT22;26978;44.830;-0.674;2023-03-01T07:14:55;0.40;99.90
35692;DHT22;26978;44.830;-0.674;2023-03-01T07:17:20;0.50;99.90
35692;DHT22;26978;44.830;-0.674;2023-03-01T07:19:46;0.50;99.90
35692;DHT22;26978;44.830;-0.674;2023-03-01T07:22:11;0.60;99.90
35692;DHT22;26978;44.830;-0.674;2023-03-01T07:24:37;0.60;99.90
35692;DHT22;26978;44.830;-0.674;2023-03-01T07:27:02;0.70;99.90
35692;DHT22;26978;44.830;-0.674;2023-03-01T07:29:28;0.70;99.90
35692;DHT22;26978;44.830;-0.674;2023-03-01T07:31:54;0.80;99.90
35692;DHT22;26978;44.830;-0.674;2023-03-01T07:34:19;0.80;99.90
35692;DHT22;26978;44.830;-0.674;2023-03-01T07:36:45;0.80;99.90
35692;DHT22;26978;44.830;-0.674;2023-03-01T07:39:10;0.90;99.90
35692;DHT22;26978;44.830;-0.674;2023-03-01T07:41:36;0.90;99.90
35692;DHT22;26978;44.830;-0.674;2023-03-01T07:44:02;1.00;99.90
35692;DHT22;26978;44.830;-0.674;2023-03-01T07:46:28;1.00;99.90
35692;DHT22;26978;44.830;-0.674;2023-03-01T07:48:53;1.00;99.90
35692;DHT22;26978;44.830;-0.674;2023-03-01T07:51:19;1.00;99.90
35692;DHT22;26978;44.830;-0.674;2023-03-01T07:53:47;1.10;99.90
35692;DHT22;26978;44.830;-0.674;2023-03-01T07:56:14;1.20;99.90
35692;DHT22;26978;44.830;-0.674;2023-03-01T07:58:42;1.20;99.90
35692;DHT22;26978;44.830;-0.674;2023-03-01T08:01:08;1.30;99.90
35692;DHT22;26978;44.830;-0.674;2023-03-01T08:03:34;1.30;99.90
35692;DHT22;26978;44.830;-0.674;2023-03-01T08:06:01;1.30;99.90
35692;DHT22;26978;44.830;-0.674;2023-03-01T08:08:27;1.40;99.90
35692;DHT22;26978;44.830;-0.674;2023-03-01T08:10:56;1.40;99.90
35692;DHT22;26978;44.830;-0.674;2023-03-01T08:13:21;1.40;99.90
35692;DHT22;26978;44.830;-0.674;2023-03-01T08:15:48;1.50;99.90
35692;DHT22;26978;44.830;-0.674;2023-03-01T08:18:14;1.50;99.90
35692;DHT22;26978;44.830;-0.674;2023-03-01T08:20:39;1.60;99.90
35692;DHT22;26978;44.830;-0.674;2023-03-01T08:23:05;1.60;99.90
35692;DHT22;26978;44.830;-0.674;2023-03-01T08:25:30;1.70;99.90
35692;DHT22;26978;44.830;-0.674;2023-03-01T08:27:56;1.70;99.90
35692;DHT22;26978;44.830;-0.674;2023-03-01T08:30:21;1.70;99.90
35692;DHT22;26978;44.830;-0.674;2023-03-01T08:32:49;1.80;99.90
35692;DHT22;26978;44.830;-0.674;2023-03-01T08:35:14;1.80;99.90
35692;DHT22;26978;44.830;-0.674;2023-03-01T08:37:40;1.80;99.90
35692;DHT22;26978;44.830;-0.674;2023-03-01T08:40:06;2.00;99.90
35692;DHT22;26978;44.830;-0.674;2023-03-01T08:42:32;2.00;99.90
35692;DHT22;26978;44.830;-0.674;2023-03-01T08:44:58;2.10;99.90
35692;DHT22;26978;44.830;-0.674;2023-03-01T08:47:23;2.10;99.90
35692;DHT22;26978;44.830;-0.674;2023-03-01T08:49:49;2.10;99.90
35692;DHT22;26978;44.830;-0.674;2023-03-01T08:52:15;2.20;99.90
35692;DHT22;26978;44.830;-0.674;2023-03-01T08:54:40;2.30;99.90
35692;DHT22;26978;44.830;-0.674;2023-03-01T08:57:06;2.30;99.90
35692;DHT22;26978;44.830;-0.674;2023-03-01T08:59:31;2.30;99.90
35692;DHT22;26978;44.830;-0.674;2023-03-01T09:02:03;2.30;99.90
35692;DHT22;26978;44.830;-0.674;2023-03-01T09:04:28;2.30;99.90
35692;DHT22;26978;44.830;-0.674;2023-03-01T09:06:54;2.30;99.90
35692;DHT22;26978;44.830;-0.674;2023-03-01T09:09:19;2.40;99.90
35692;DHT22;26978;44.830;-0.674;2023-03-01T09:11:46;2.50;99.90
35692;DHT22;26978;44.830;-0.674;2023-03-01T09:14:13;2.60;99.90
35692;DHT22;26978;44.830;-0.674;2023-03-01T09:19:30;2.70;99.90
35692;DHT22;26978;44.830;-0.674;2023-03-01T09:21:55;2.80;99.90
35692;DHT22;26978;44.830;-0.674;2023-03-01T09:24:23;2.90;99.90
35692;DHT22;26978;44.830;-0.674;2023-03-01T09:26:49;2.90;99.90
35692;DHT22;26978;44.830;-0.674;2023-03-01T09:29:15;3.00;99.90
35692;DHT22;26978;44.830;-0.674;2023-03-01T09:31:41;3.00;99.90
35692;DHT22;26978;44.830;-0.674;2023-03-01T09:34:07;3.10;99.90
35692;DHT22;26978;44.830;-0.674;2023-03-01T09:36:32;3.20;99.90
35692;DHT22;26978;44.830;-0.674;2023-03-01T09:38:58;3.20;99.90
35692;DHT22;26978;44.830;-0.674;2023-03-01T09:46:42;3.50;99.90
35692;DHT22;26978;44.830;-0.674;2023-03-01T09:49:19;3.50;99.90
35692;DHT22;26978;44.830;-0.674;2023-03-01T09:54:37;3.70;99.90
35692;DHT22;26978;44.830;-0.674;2023-03-01T09:57:07;3.60;99.90
35692;DHT22;26978;44.830;-0.674;2023-03-01T10:04:49;3.80;99.90
35692;DHT22;26978;44.830;-0.674;2023-03-01T10:09:59;3.70;99.90
35692;DHT22;26978;44.830;-0.674;2023-03-01T10:12:27;3.90;99.90
35692;DHT22;26978;44.830;-0.674;2023-03-01T10:15:02;3.90;99.90
35692;DHT22;26978;44.830;-0.674;2023-03-01T10:17:36;4.00;99.90
35692;DHT22;26978;44.830;-0.674;2023-03-01T10:20:22;4.00;99.90
35692;DHT22;26978;44.830;-0.674;2023-03-01T10:22:48;4.10;99.90
35692;DHT22;26978;44.830;-0.674;2023-03-01T10:25:41;4.30;99.90
35692;DHT22;26978;44.830;-0.674;2023-03-01T10:30:41;4.40;99.90
35692;DHT22;26978;44.830;-0.674;2023-03-01T10:33:16;4.30;99.90
35692;DHT22;26978;44.830;-0.674;2023-03-01T10:35:42;4.50;99.90
35692;DHT22;26978;44.830;-0.674;2023-03-01T10:38:09;4.60;99.90
35692;DHT22;26978;44.830;-0.674;2023-03-01T10:40:35;4.60;99.90
35692;DHT22;26978;44.830;-0.674;2023-03-01T10:43:02;4.70;99.90
35692;DHT22;26978;44.830;-0.674;2023-03-01T10:48:14;4.60;99.90
35692;DHT22;26978;44.830;-0.674;2023-03-01T10:50:40;4.70;99.90
35692;DHT22;26978;44.830;-0.674;2023-03-01T10:58:23;4.80;99.90
35692;DHT22;26978;44.830;-0.674;2023-03-01T11:01:00;4.80;99.90
35692;DHT22;26978;44.830;-0.674;2023-03-01T11:03:29;4.80;99.90
35692;DHT22;26978;44.830;-0.674;2023-03-01T11:08:32;4.80;99.90
35692;DHT22;26978;44.830;-0.674;2023-03-01T11:11:05;5.00;99.90
35692;DHT22;26978;44.830;-0.674;2023-03-01T11:13:31;5.00;99.90
35692;DHT22;26978;44.830;-0.674;2023-03-01T11:16:01;5.20;99.90
35692;DHT22;26978;44.830;-0.674;2023-03-01T11:18:27;5.30;99.90
35692;DHT22;26978;44.830;-0.674;2023-03-01T11:20:54;5.40;95.90
35692;DHT22;26978;44.830;-0.674;2023-03-01T11:23:20;5.40;93.50
35692;DHT22;26978;44.830;-0.674;2023-03-01T11:25:54;5.50;94.70
35692;DHT22;26978;44.830;-0.674;2023-03-01T11:28:21;5.50;94.00
35692;DHT22;26978;44.830;-0.674;2023-03-01T11:30:59;5.40;92.70
35692;DHT22;26978;44.830;-0.674;2023-03-01T11:38:40;5.50;94.90
35692;DHT22;26978;44.830;-0.674;2023-03-01T11:44:24;5.50;92.70
35692;DHT22;26978;44.830;-0.674;2023-03-01T12:08:37;5.90;92.30
35692;DHT22;26978;44.830;-0.674;2023-03-01T12:26:51;6.60;92.50
35692;DHT22;26978;44.830;-0.674;2023-03-01T12:33:57;6.60;91.80
35692;DHT22;26978;44.830;-0.674;2023-03-01T12:36:37;6.60;90.40
35692;DHT22;26978;44.830;-0.674;2023-03-01T12:49:13;7.30;90.70
35692;DHT22;26978;44.830;-0.674;2023-03-01T12:51:39;7.30;90.10
35692;DHT22;26978;44.830;-0.674;2023-03-01T12:54:10;7.10;91.20
35692;DHT22;26978;44.830;-0.674;2023-03-01T12:56:37;7.20;93.50
35692;DHT22;26978;44.830;-0.674;2023-03-01T13:02:00;7.30;91.10
35692;DHT22;26978;44.830;-0.674;2023-03-01T13:04:28;7.30;92.60
35692;DHT22;26978;44.830;-0.674;2023-03-01T13:09:47;7.30;94.20
35692;DHT22;26978;44.830;-0.674;2023-03-01T13:14:58;7.60;93.20
35692;DHT22;26978;44.830;-0.674;2023-03-01T13:17:39;7.60;94.30
35692;DHT22;26978;44.830;-0.674;2023-03-01T13:20:11;7.60;93.70
35692;DHT22;26978;44.830;-0.674;2023-03-01T13:22:37;7.60;92.80
35692;DHT22;26978;44.830;-0.674;2023-03-01T13:25:13;7.50;92.90
35692;DHT22;26978;44.830;-0.674;2023-03-01T13:27:40;7.60;93.80
35692;DHT22;26978;44.830;-0.674;2023-03-01T13:30:12;7.80;94.20
35692;DHT22;26978;44.830;-0.674;2023-03-01T13:32:51;7.60;94.30
35692;DHT22;26978;44.830;-0.674;2023-03-01T13:37:45;8.10;93.00
35692;DHT22;26978;44.830;-0.674;2023-03-01T13:42:53;8.60;92.60
35692;DHT22;26978;44.830;-0.674;2023-03-01T13:47:44;9.20;92.50
35692;DHT22;26978;44.830;-0.674;2023-03-01T13:50:16;9.10;91.40
35692;DHT22;26978;44.830;-0.674;2023-03-01T13:52:48;9.50;92.80
35692;DHT22;26978;44.830;-0.674;2023-03-01T13:55:18;9.80;93.10
35692;DHT22;26978;44.830;-0.674;2023-03-01T13:57:46;9.60;91.30
35692;DHT22;26978;44.830;-0.674;2023-03-01T14:05:29;10.60;90.20
35692;DHT22;26978;44.830;-0.674;2023-03-01T14:07:55;10.90;87.90
35692;DHT22;26978;44.830;-0.674;2023-03-01T14:10:20;10.90;86.00
35692;DHT22;26978;44.830;-0.674;2023-03-01T14:20:17;11.30;81.60
35692;DHT22;26978;44.830;-0.674;2023-03-01T14:22:43;11.90;80.80
35692;DHT22;26978;44.830;-0.674;2023-03-01T14:25:20;12.70;80.40
35692;DHT22;26978;44.830;-0.674;2023-03-01T14:27:50;11.90;77.00
35692;DHT22;26978;44.830;-0.674;2023-03-01T14:30:26;12.10;78.80
35692;DHT22;26978;44.830;-0.674;2023-03-01T14:32:57;12.70;77.00
35692;DHT22;26978;44.830;-0.674;2023-03-01T14:35:33;12.90;74.80
35692;DHT22;26978;44.830;-0.674;2023-03-01T14:37:59;12.90;74.40
35692;DHT22;26978;44.830;-0.674;2023-03-01T14:40:26;12.30;72.80
35692;DHT22;26978;44.830;-0.674;2023-03-01T14:42:52;11.90;76.30
35692;DHT22;26978;44.830;-0.674;2023-03-01T14:45:18;11.10;78.10
35692;DHT22;26978;44.830;-0.674;2023-03-01T14:47:44;11.30;81.00
35692;DHT22;26978;44.830;-0.674;2023-03-01T14:50:29;12.00;77.40
35692;DHT22;26978;44.830;-0.674;2023-03-01T14:52:57;12.40;74.20
35692;DHT22;26978;44.830;-0.674;2023-03-01T14:55:29;12.60;74.70
35692;DHT22;26978;44.830;-0.674;2023-03-01T14:57:55;13.90;74.90
35692;DHT22;26978;44.830;-0.674;2023-03-01T15:00:22;14.20;72.60
35692;DHT22;26978;44.830;-0.674;2023-03-01T15:02:49;14.00;64.50
35692;DHT22;26978;44.830;-0.674;2023-03-01T15:05:15;12.80;71.10
35692;DHT22;26978;44.830;-0.674;2023-03-01T15:07:43;12.10;71.10
35692;DHT22;26978;44.830;-0.674;2023-03-01T15:10:19;12.80;71.30
35692;DHT22;26978;44.830;-0.674;2023-03-01T15:12:45;13.10;69.20
35692;DHT22;26978;44.830;-0.674;2023-03-01T15:18:30;14.10;63.80
35692;DHT22;26978;44.830;-0.674;2023-03-01T15:20:37;12.70;64.50
35692;DHT22;26978;44.830;-0.674;2023-03-01T15:23:02;11.60;70.20
35692;DHT22;26978;44.830;-0.674;2023-03-01T15:25:29;10.60;73.50
35692;DHT22;26978;44.830;-0.674;2023-03-01T15:27:55;9.70;79.20
35692;DHT22;26978;44.830;-0.674;2023-03-01T15:30:26;9.20;84.10
35692;DHT22;26978;44.830;-0.674;2023-03-01T15:35:44;8.40;91.20
35692;DHT22;26978;44.830;-0.674;2023-03-01T15:41:26;8.10;93.10
35692;DHT22;26978;44.830;-0.674;2023-03-01T15:43:53;8.00;92.40
35692;DHT22;26978;44.830;-0.674;2023-03-01T15:48:51;7.90;93.20
35692;DHT22;26978;44.830;-0.674;2023-03-01T15:51:18;7.80;93.50
35692;DHT22;26978;44.830;-0.674;2023-03-01T15:53:47;7.80;94.00
35692;DHT22;26978;44.830;-0.674;2023-03-01T15:56:13;7.70;94.50
35692;DHT22;26978;44.830;-0.674;2023-03-01T15:58:39;7.70;94.30
35692;DHT22;26978;44.830;-0.674;2023-03-01T16:01:08;7.80;95.40
35692;DHT22;26978;44.830;-0.674;2023-03-01T16:03:34;7.80;94.60
35692;DHT22;26978;44.830;-0.674;2023-03-01T16:05:59;7.80;94.60
35692;DHT22;26978;44.830;-0.674;2023-03-01T16:08:26;7.90;95.50
35692;DHT22;26978;44.830;-0.674;2023-03-01T16:10:51;7.70;94.30
35692;DHT22;26978;44.830;-0.674;2023-03-01T16:13:18;7.50;95.30
35692;DHT22;26978;44.830;-0.674;2023-03-01T16:15:44;7.50;95.70
35692;DHT22;26978;44.830;-0.674;2023-03-01T16:18:10;7.50;95.90
35692;DHT22;26978;44.830;-0.674;2023-03-01T16:20:36;7.60;96.40
35692;DHT22;26978;44.830;-0.674;2023-03-01T16:23:03;7.70;95.80
35692;DHT22;26978;44.830;-0.674;2023-03-01T16:25:30;7.80;95.60
35692;DHT22;26978;44.830;-0.674;2023-03-01T16:27:56;7.80;95.40
35692;DHT22;26978;44.830;-0.674;2023-03-01T16:30:23;8.10;95.00
35692;DHT22;26978;44.830;-0.674;2023-03-01T16:32:49;8.00;94.70
35692;DHT22;26978;44.830;-0.674;2023-03-01T16:35:16;8.20;94.90
35692;DHT22;26978;44.830;-0.674;2023-03-01T16:37:41;8.30;94.30
35692;DHT22;26978;44.830;-0.674;2023-03-01T16:40:16;8.40;94.10
35692;DHT22;26978;44.830;-0.674;2023-03-01T16:42:42;8.50;93.90
35692;DHT22;26978;44.830;-0.674;2023-03-01T16:45:08;8.90;93.40
35692;DHT22;26978;44.830;-0.674;2023-03-01T16:47:34;9.00;92.50
35692;DHT22;26978;44.830;-0.674;2023-03-01T16:49:59;9.10;91.50
35692;DHT22;26978;44.830;-0.674;2023-03-01T16:52:25;9.30;91.30
35692;DHT22;26978;44.830;-0.674;2023-03-01T16:54:51;9.30;91.40
35692;DHT22;26978;44.830;-0.674;2023-03-01T16:57:16;9.10;91.00
35692;DHT22;26978;44.830;-0.674;2023-03-01T16:59:42;8.60;92.00
35692;DHT22;26978;44.830;-0.674;2023-03-01T17:02:12;8.40;92.40
35692;DHT22;26978;44.830;-0.674;2023-03-01T17:04:38;8.40;93.30
35692;DHT22;26978;44.830;-0.674;2023-03-01T17:07:04;8.00;93.80
35692;DHT22;26978;44.830;-0.674;2023-03-01T17:09:29;7.70;94.90
35692;DHT22;26978;44.830;-0.674;2023-03-01T17:11:55;7.50;96.10
35692;DHT22;26978;44.830;-0.674;2023-03-01T17:14:20;7.40;96.00
35692;DHT22;26978;44.830;-0.674;2023-03-01T17:16:46;7.30;96.60
35692;DHT22;26978;44.830;-0.674;2023-03-01T17:19:12;7.30;98.20
35692;DHT22;26978;44.830;-0.674;2023-03-01T17:21:43;7.20;97.60
35692;DHT22;26978;44.830;-0.674;2023-03-01T17:24:08;7.00;97.80
35692;DHT22;26978;44.830;-0.674;2023-03-01T17:26:34;6.90;97.70
35692;DHT22;26978;44.830;-0.674;2023-03-01T17:29:00;6.80;97.70
35692;DHT22;26978;44.830;-0.674;2023-03-01T17:31:26;6.70;97.50
35692;DHT22;26978;44.830;-0.674;2023-03-01T17:33:51;6.60;98.30
35692;DHT22;26978;44.830;-0.674;2023-03-01T17:36:17;6.40;99.00
35692;DHT22;26978;44.830;-0.674;2023-03-01T17:38:42;6.30;99.50
35692;DHT22;26978;44.830;-0.674;2023-03-01T17:41:08;6.30;99.60
35692;DHT22;26978;44.830;-0.674;2023-03-01T17:43:36;6.20;99.90
35692;DHT22;26978;44.830;-0.674;2023-03-01T17:46:02;6.10;99.90
35692;DHT22;26978;44.830;-0.674;2023-03-01T17:48:27;6.10;99.90
35692;DHT22;26978;44.830;-0.674;2023-03-01T17:50:53;6.10;99.90
35692;DHT22;26978;44.830;-0.674;2023-03-01T17:53:18;6.00;99.90